Time;durP1;ratioP1;P1;durP2;ratioP2;P2;SDS_P1;SDS_P2;PMS_P1;PMS_P2;Temp;Humidity;BMP_temperature;BMP_pressure;BME280_temperature;BME280_humidity;BME280_pressure;Samples;Min_cycle;Max_cycle;Signal;HPM_P1;HPM_P2
2021/12/06 05:16:11;;;;;;;28.10;15.77;;;;;;;-0.23;100.00;99386.88;5563298;32;173273;-85
2021/12/06 05:19:15;;;;;;;25.42;15.30;;;;;;;-0.29;100.00;99391.31;5553906;32;34459;-86
2021/12/06 05:22:18;;;;;;;24.10;14.63;;;;;;;-0.28;100.00;99387.84;5554478;32;33840;-86
2021/12/06 05:25:23;;;;;;;21.50;13.85;;;;;;;-0.27;100.00;99391.31;5550428;32;33719;-86
2021/12/06 05:28:31;;;;;;;20.40;13.23;;;;;;;-0.24;100.00;99395.59;5551191;32;34182;-86
2021/12/06 05:31:39;;;;;;;20.10;13.10;;;;;;;-0.23;100.00;99400.78;5549952;32;34427;-86
2021/12/06 05:34:44;;;;;;;21.35;12.82;;;;;;;-0.25;100.00;99402.53;5549369;32;34057;-90
2021/12/06 05:37:50;;;;;;;23.17;14.05;;;;;;;-0.23;100.00;99406.00;5550092;32;34783;-90
2021/12/06 05:40:53;;;;;;;22.75;13.85;;;;;;;-0.23;100.00;99407.72;5550545;32;34078;-90
2021/12/06 05:43:56;;;;;;;21.70;14.13;;;;;;;-0.21;100.00;99408.56;5549846;32;34119;-86
2021/12/06 05:47:04;;;;;;;21.15;13.52;;;;;;;-0.21;100.00;99400.75;5550546;32;33599;-86
2021/12/06 05:50:07;;;;;;;23.15;14.48;;;;;;;-0.21;100.00;99400.75;5551489;32;34303;-86
2021/12/06 05:53:10;;;;;;;20.30;13.57;;;;;;;-0.15;100.00;99408.44;5550294;32;34286;-86
2021/12/06 05:56:12;;;;;;;24.60;15.35;;;;;;;-0.14;100.00;99408.38;5540722;32;34496;-86
2021/12/06 05:59:15;;;;;;;25.55;15.55;;;;;;;-0.19;100.00;99409.41;5544625;32;34234;-84
2021/12/06 06:02:19;;;;;;;23.98;14.65;;;;;;;-0.21;100.00;99406.81;5544598;32;34074;-84
2021/12/06 06:05:22;;;;;;;27.83;15.80;;;;;;;-0.17;100.00;99411.09;5545808;32;34174;-84
2021/12/06 06:08:25;;;;;;;26.30;16.40;;;;;;;-0.09;100.00;99412.66;5543961;32;34323;-84
2021/12/06 06:11:29;;;;;;;26.73;15.73;;;;;;;0.03;100.00;99403.69;5543279;32;33995;-84
2021/12/06 06:14:32;;;;;;;25.73;15.80;;;;;;;0.00;100.00;99412.47;5542130;32;35062;-84
2021/12/06 06:17:43;;;;;;;27.50;15.60;;;;;;;0.07;100.00;99418.41;5547327;32;34575;-85
2021/12/06 06:20:51;;;;;;;24.73;15.10;;;;;;;0.25;100.00;99424.97;5549839;32;34531;-85
2021/12/06 06:23:56;;;;;;;25.00;15.02;;;;;;;0.11;100.00;99427.88;5546073;32;34441;-85
2021/12/06 06:26:59;;;;;;;24.02;15.32;;;;;;;0.11;100.00;99433.09;5524386;32;34159;-85
2021/12/06 06:30:03;;;;;;;25.80;15.02;;;;;;;0.10;100.00;99442.66;5541029;32;34089;-85
2021/12/06 06:33:06;;;;;;;24.08;15.50;;;;;;;0.08;100.00;99440.97;5540298;32;35079;-85
2021/12/06 06:36:11;;;;;;;26.48;15.10;;;;;;;0.08;100.00;99440.97;5537783;32;34128;-85
2021/12/06 06:39:14;;;;;;;24.15;15.95;;;;;;;0.10;100.00;99434.00;5542416;32;34235;-85
2021/12/06 06:42:18;;;;;;;27.05;15.60;;;;;;;0.11;100.00;99446.97;5535903;32;35002;-85
2021/12/06 06:45:21;;;;;;;28.23;15.98;;;;;;;0.11;100.00;99454.81;5527647;32;33853;-84
2021/12/06 06:48:24;;;;;;;26.98;16.20;;;;;;;0.13;100.00;99452.16;5532685;32;36649;-85
2021/12/06 06:51:28;;;;;;;26.65;16.10;;;;;;;0.18;100.00;99463.38;5530986;32;34025;-86
2021/12/06 06:54:31;;;;;;;26.73;15.82;;;;;;;0.21;100.00;99465.91;5526535;32;34130;-87
2021/12/06 06:57:33;;;;;;;27.30;15.30;;;;;;;0.13;100.00;99470.44;5522357;32;34582;-87
2021/12/06 07:00:38;;;;;;;26.87;16.58;;;;;;;0.16;100.00;99472.97;5517146;32;34795;-85
2021/12/06 07:03:43;;;;;;;27.23;15.35;;;;;;;0.20;100.00;99479.00;5515632;32;33987;-85
2021/12/06 07:06:46;;;;;;;27.25;16.35;;;;;;;0.29;100.00;99489.22;5517515;32;33951;-85
2021/12/06 07:09:49;;;;;;;29.48;16.37;;;;;;;0.40;100.00;99497.66;5518724;32;34688;-85
2021/12/06 07:12:54;;;;;;;28.60;16.35;;;;;;;0.35;100.00;99496.91;5533047;32;33794;-85
2021/12/06 07:15:56;;;;;;;25.92;16.17;;;;;;;0.34;100.00;99499.53;5529410;32;34106;-85
2021/12/06 07:18:59;;;;;;;31.62;17.23;;;;;;;0.40;100.00;99502.00;5534779;32;34547;-85
2021/12/06 07:22:22;;;;;;;27.23;16.20;;;;;;;0.54;100.00;99499.09;5527577;32;35017;-90
2021/12/06 07:25:26;;;;;;;30.80;17.00;;;;;;;0.47;100.00;99503.63;5530321;32;35248;-90
2021/12/06 07:28:28;;;;;;;28.98;16.45;;;;;;;0.47;100.00;99516.66;5527991;32;33906;-91
2021/12/06 07:31:36;;;;;;;29.67;16.83;;;;;;;0.49;100.00;99520.09;5532734;32;34207;-87
2021/12/06 07:34:39;;;;;;;28.17;16.58;;;;;;;0.44;100.00;99528.94;5527545;32;34136;-85
2021/12/06 07:37:43;;;;;;;30.55;17.30;;;;;;;0.50;100.00;99531.41;5529718;32;34239;-88
2021/12/06 07:40:49;;;;;;;30.33;16.95;;;;;;;0.43;100.00;99528.06;5521775;32;34521;-85
2021/12/06 07:43:52;;;;;;;28.10;16.23;;;;;;;0.48;100.00;99515.78;5531154;32;34286;-85
2021/12/06 07:46:55;;;;;;;33.92;17.17;;;;;;;0.52;100.00;99514.78;5526824;32;34443;-86
2021/12/06 07:49:58;;;;;;;29.85;16.83;;;;;;;0.63;100.00;99522.41;5528007;32;33702;-85
2021/12/06 07:53:02;;;;;;;28.87;16.35;;;;;;;0.73;100.00;99522.19;5519296;32;33812;-85
2021/12/06 07:56:06;;;;;;;31.50;17.42;;;;;;;0.64;100.00;99525.84;5534357;32;33630;-85
2021/12/06 07:59:09;;;;;;;33.95;17.73;;;;;;;0.64;100.00;99536.31;5519491;32;35079;-88
2021/12/06 08:02:12;;;;;;;34.67;18.83;;;;;;;0.56;100.00;99528.66;5513901;32;34159;-88
2021/12/06 08:05:32;;;;;;;38.38;19.92;;;;;;;0.60;100.00;99529.44;5513880;32;33680;-86
2021/12/06 08:08:40;;;;;;;35.65;18.90;;;;;;;0.60;100.00;99532.06;5513640;32;34132;-87
2021/12/06 08:11:43;;;;;;;39.72;19.77;;;;;;;0.60;100.00;99540.72;5535459;32;34461;-86
2021/12/06 08:14:46;;;;;;;37.95;19.20;;;;;;;0.56;100.00;99536.50;5542083;32;34534;-86
2021/12/06 08:17:49;;;;;;;40.42;20.10;;;;;;;0.51;100.00;99533.97;5535770;32;34025;-84
2021/12/06 08:20:52;;;;;;;40.35;20.33;;;;;;;0.49;100.00;99537.50;5534458;32;33890;-84
2021/12/06 08:23:57;;;;;;;40.75;20.60;;;;;;;0.43;100.00;99541.09;5545385;32;33695;-87
2021/12/06 08:27:00;;;;;;;44.17;21.00;;;;;;;0.51;100.00;99544.41;5555030;32;33934;-85
2021/12/06 08:30:04;;;;;;;46.03;21.25;;;;;;;0.49;100.00;99546.19;5553092;32;33581;-86
2021/12/06 08:33:08;;;;;;;46.53;21.00;;;;;;;0.42;100.00;99547.22;5549583;32;34528;-86
2021/12/06 08:36:13;;;;;;;47.10;23.02;;;;;;;0.51;100.00;99552.22;5549955;32;33651;-86
2021/12/06 08:39:15;;;;;;;49.03;23.70;;;;;;;0.47;100.00;99550.59;5557183;32;34655;-86
2021/12/06 08:42:18;;;;;;;49.08;23.65;;;;;;;0.44;100.00;99553.25;5553879;32;33578;-85
2021/12/06 08:45:22;;;;;;;48.70;24.40;;;;;;;0.47;100.00;99557.56;5550723;32;34102;-85
2021/12/06 08:48:30;;;;;;;49.13;23.73;;;;;;;0.51;100.00;99560.06;5533342;32;34091;-86
2021/12/06 08:51:44;;;;;;;49.97;24.37;;;;;;;0.65;100.00;99566.72;5546099;32;33877;-85
2021/12/06 08:54:47;;;;;;;46.95;21.67;;;;;;;0.72;100.00;99565.72;5553325;32;34368;-85
2021/12/06 08:57:50;;;;;;;45.22;23.08;;;;;;;0.76;100.00;99563.91;5552067;32;34315;-85
2021/12/06 09:00:53;;;;;;;46.08;23.40;;;;;;;0.79;100.00;99564.69;5545006;32;34003;-85
2021/12/06 09:03:57;;;;;;;47.95;23.30;;;;;;;0.88;100.00;99565.38;5543948;32;34726;-89
2021/12/06 09:07:01;;;;;;;48.28;24.33;;;;;;;0.87;100.00;99568.88;5536013;32;33816;-90
2021/12/06 09:10:06;;;;;;;48.55;24.70;;;;;;;0.91;100.00;99578.38;5541189;32;34081;-89
2021/12/06 09:13:09;;;;;;;47.53;23.90;;;;;;;0.79;100.00;99569.03;5540689;32;33682;-86
2021/12/06 09:16:13;;;;;;;46.30;23.95;;;;;;;0.81;100.00;99564.66;5534564;32;33988;-85
2021/12/06 09:19:17;;;;;;;44.97;22.87;;;;;;;0.85;100.00;99576.72;5553523;32;33776;-85
2021/12/06 09:22:21;;;;;;;43.25;22.10;;;;;;;0.95;100.00;99564.31;5552743;32;34341;-86
2021/12/06 09:25:25;;;;;;;47.35;23.23;;;;;;;1.11;100.00;99564.81;5538909;32;33529;-86
2021/12/06 09:28:28;;;;;;;45.75;22.60;;;;;;;1.25;100.00;99554.03;5536347;32;33971;-86
2021/12/06 09:31:31;;;;;;;41.45;22.50;;;;;;;1.25;100.00;99543.59;5533693;32;35044;-86
2021/12/06 09:34:37;;;;;;;43.70;22.90;;;;;;;1.52;100.00;99545.56;5549516;32;34199;-85
2021/12/06 09:37:42;;;;;;;38.03;20.40;;;;;;;1.86;100.00;99528.97;5551173;32;33890;-84
2021/12/06 09:40:48;;;;;;;39.30;21.23;;;;;;;2.64;100.00;99527.63;5548644;32;34495;-85
2021/12/06 09:43:53;;;;;;;35.78;19.33;;;;;;;2.76;100.00;99528.16;5541552;32;33970;-85
2021/12/06 09:46:56;;;;;;;34.95;19.67;;;;;;;2.73;100.00;99520.37;5534914;32;34253;-85
2021/12/06 09:50:00;;;;;;;32.15;18.77;;;;;;;2.80;100.00;99520.13;5533978;32;34223;-86
2021/12/06 09:53:08;;;;;;;27.98;16.87;;;;;;;2.45;100.00;99527.31;5536110;32;33573;-86
2021/12/06 09:56:17;;;;;;;29.08;16.85;;;;;;;2.34;100.00;99537.22;5543144;32;34472;-87
2021/12/06 09:59:24;;;;;;;24.60;15.60;;;;;;;2.46;100.00;99536.03;5534372;32;36389;-86
2021/12/06 10:02:26;;;;;;;26.27;15.85;;;;;;;2.46;100.00;99528.16;5538898;32;34221;-86
2021/12/06 10:05:30;;;;;;;27.05;16.42;;;;;;;2.64;100.00;99526.75;5532279;32;34093;-87
2021/12/06 10:08:37;;;;;;;25.30;15.52;;;;;;;2.82;99.88;99514.84;5535645;32;33890;-87
2021/12/06 10:11:40;;;;;;;25.65;15.68;;;;;;;3.34;98.66;99516.66;5540930;32;34235;-87
2021/12/06 10:14:44;;;;;;;24.95;15.05;;;;;;;3.89;94.42;99518.28;5532981;32;33210;-87
2021/12/06 10:17:47;;;;;;;22.92;14.65;;;;;;;4.14;91.65;99513.00;5539207;32;33387;-87
2021/12/06 10:20:50;;;;;;;24.23;15.93;;;;;;;3.97;92.19;99504.91;5535473;32;33627;-87
2021/12/06 10:23:55;;;;;;;22.70;13.95;;;;;;;3.82;93.85;99495.81;5548535;32;34188;-88
2021/12/06 10:27:06;;;;;;;22.62;14.65;;;;;;;3.62;94.45;99500.00;5558935;32;34172;-88
2021/12/06 10:30:11;;;;;;;22.55;14.60;;;;;;;3.41;94.42;99498.97;5548372;32;34220;-88
2021/12/06 10:33:22;;;;;;;22.40;14.52;;;;;;;3.36;96.31;99501.72;5548308;32;34035;-87
2021/12/06 10:36:26;;;;;;;20.27;13.97;;;;;;;3.25;96.95;99502.09;5565058;32;33959;-85
2021/12/06 10:39:36;;;;;;;21.12;13.62;;;;;;;3.12;97.69;99492.94;5558136;32;34501;-86
2021/12/06 10:42:42;;;;;;;21.35;13.50;;;;;;;3.03;96.78;99508.06;5543329;32;33830;-89
2021/12/06 10:45:48;;;;;;;21.05;13.48;;;;;;;3.32;96.93;99515.88;5564938;32;34014;-88
2021/12/06 10:48:54;;;;;;;20.80;13.77;;;;;;;3.21;96.60;99526.69;5565489;32;35174;-85
2021/12/06 10:51:56;;;;;;;21.60;13.60;;;;;;;3.39;95.60;99537.47;5564246;32;34262;-87
2021/12/06 10:54:59;;;;;;;22.90;13.85;;;;;;;3.13;97.55;99568.03;5559091;32;34061;-87
2021/12/06 10:58:10;;;;;;;21.33;13.70;;;;;;;3.18;98.01;99574.00;5549169;32;34611;-86
2021/12/06 11:01:17;;;;;;;20.67;14.20;;;;;;;3.41;98.85;99569.78;5544655;32;35132;-86
2021/12/06 11:04:27;;;;;;;22.62;14.15;;;;;;;3.33;99.04;99572.63;5542755;32;34260;-85
2021/12/06 11:07:33;;;;;;;24.55;14.82;;;;;;;3.21;97.96;99576.50;5542376;32;34228;-88
2021/12/06 11:10:44;;;;;;;23.15;14.25;;;;;;;2.93;99.55;99583.47;5545618;32;36175;-88
2021/12/06 11:13:50;;;;;;;22.30;14.95;;;;;;;2.93;100.00;99585.25;5545632;32;34244;-87
2021/12/06 11:16:55;;;;;;;22.67;14.00;;;;;;;2.94;99.90;99571.22;5557737;32;34232;-87
2021/12/06 11:19:58;;;;;;;20.55;13.18;;;;;;;3.24;97.58;99566.78;5545606;32;35075;-87
2021/12/06 11:23:06;;;;;;;22.33;13.75;;;;;;;3.26;96.76;99576.38;5554115;32;34811;-87
2021/12/06 11:26:14;;;;;;;23.50;13.52;;;;;;;2.71;98.69;99598.13;5557358;32;34188;-87
2021/12/06 11:29:31;;;;;;;19.40;13.85;;;;;;;2.94;98.92;99602.66;5551281;32;34249;-87
2021/12/06 11:32:54;;;;;;;25.35;14.35;;;;;;;2.92;99.04;99594.00;5541485;32;33544;-88
2021/12/06 11:35:56;;;;;;;22.27;14.32;;;;;;;2.71;99.01;99598.97;5547302;32;34263;-87
2021/12/06 11:39:16;;;;;;;20.33;14.02;;;;;;;2.86;99.25;99605.53;5543266;32;33953;-85
2021/12/06 11:42:18;;;;;;;25.27;14.35;;;;;;;2.81;100.00;99602.19;5538812;32;34660;-86
2021/12/06 11:45:38;;;;;;;27.13;14.98;;;;;;;2.97;99.87;99605.22;5537655;32;34312;-90
2021/12/06 11:48:42;;;;;;;21.42;13.45;;;;;;;3.17;98.65;99598.50;5547613;32;34100;-89
2021/12/06 11:51:46;;;;;;;25.30;13.88;;;;;;;2.92;98.83;99602.72;5549738;32;34553;-87
2021/12/06 11:54:58;;;;;;;21.50;13.65;;;;;;;3.03;98.40;99601.53;5548597;32;33765;-88
2021/12/06 11:58:03;;;;;;;20.00;13.38;;;;;;;3.23;96.90;99609.63;5532985;32;33740;-86
2021/12/06 12:01:11;;;;;;;20.45;13.93;;;;;;;3.17;97.37;99604.56;5537646;32;33836;-85
2021/12/06 12:04:21;;;;;;;20.15;13.40;;;;;;;3.25;97.78;99604.34;5548380;32;33790;-85
2021/12/06 12:07:25;;;;;;;21.23;13.95;;;;;;;3.13;98.09;99602.97;5540088;32;33941;-84
2021/12/06 12:10:32;;;;;;;21.17;13.88;;;;;;;3.12;98.17;99598.63;5545910;32;34271;-86
2021/12/06 12:13:38;;;;;;;20.92;12.93;;;;;;;3.04;97.50;99608.50;5544928;32;33920;-86
2021/12/06 12:16:41;;;;;;;20.35;12.80;;;;;;;2.87;98.84;99601.16;5549976;32;35216;-87
2021/12/06 12:19:45;;;;;;;21.27;12.75;;;;;;;3.03;98.29;99591.94;5549238;32;33644;-87
2021/12/06 12:22:50;;;;;;;23.27;12.98;;;;;;;3.16;97.54;99584.50;5551526;32;33811;-86
2021/12/06 12:26:00;;;;;;;20.33;12.93;;;;;;;3.44;95.56;99578.38;5544448;32;33584;-86
2021/12/06 12:29:12;;;;;;;18.67;12.13;;;;;;;3.22;96.31;99573.00;5557128;32;33857;-87
2021/12/06 12:32:16;;;;;;;17.85;11.95;;;;;;;3.16;96.44;99574.03;5555104;32;34133;-87
2021/12/06 12:35:20;;;;;;;17.45;12.50;;;;;;;3.32;96.23;99573.56;5554142;32;33791;-86
2021/12/06 12:38:27;;;;;;;22.48;11.85;;;;;;;3.25;96.11;99575.50;5549944;32;33713;-86
2021/12/06 12:41:33;;;;;;;16.98;11.68;;;;;;;3.09;95.57;99562.03;5537888;32;34219;-87
2021/12/06 12:44:50;;;;;;;16.23;11.48;;;;;;;3.01;96.29;99571.91;5551378;32;34126;-88
2021/12/06 12:47:55;;;;;;;20.75;12.27;;;;;;;2.88;97.69;99568.81;5548259;32;35000;-86
2021/12/06 12:51:10;;;;;;;15.52;11.27;;;;;;;2.92;97.18;99576.50;5550074;32;34049;-87
2021/12/06 12:54:24;;;;;;;17.23;11.27;;;;;;;2.89;96.33;99581.87;5548037;32;32545;-88
2021/12/06 12:57:38;;;;;;;17.12;11.63;;;;;;;2.95;95.79;99571.19;5546594;32;34431;-88
2021/12/06 13:00:47;;;;;;;18.40;11.32;;;;;;;3.01;95.80;99582.41;5538146;32;34362;-87
2021/12/06 13:03:59;;;;;;;16.58;10.40;;;;;;;3.07;95.93;99585.66;5555328;32;33978;-87
2021/12/06 13:07:15;;;;;;;16.87;10.80;;;;;;;3.17;95.27;99588.84;5547233;32;34364;-86
2021/12/06 13:10:21;;;;;;;15.57;9.43;;;;;;;3.03;95.06;99597.16;5551933;32;34020;-87
2021/12/06 13:13:32;;;;;;;12.95;8.73;;;;;;;2.87;95.56;99596.75;5534632;32;33656;-87
2021/12/06 13:16:56;;;;;;;;;;;;;;;2.96;94.95;99596.47;5535373;32;33792;-85
2021/12/06 13:20:19;;;;;;;12.85;9.02;;;;;;;2.86;95.55;99600.28;5537326;32;34494;-84
2021/12/06 13:23:26;;;;;;;13.60;9.20;;;;;;;2.72;96.72;99602.47;5545942;32;34004;-87
2021/12/06 13:26:38;;;;;;;12.60;8.52;;;;;;;2.99;95.22;99606.00;5555311;32;34777;-84
2021/12/06 13:29:55;;;;;;;12.75;8.88;;;;;;;2.99;95.55;99605.16;5553568;32;34020;-84
2021/12/06 13:33:00;;;;;;;14.38;8.55;;;;;;;3.15;94.66;99611.63;5553702;32;34010;-89
2021/12/06 13:36:03;;;;;;;14.05;8.85;;;;;;;3.06;94.21;99609.28;5539306;32;34779;-90
2021/12/06 13:39:29;;;;;;;12.10;7.97;;;;;;;3.16;94.54;99613.34;5556434;32;33115;-91
2021/12/06 13:42:38;;;;;;;14.15;8.52;;;;;;;2.88;95.39;99606.34;5556429;32;35158;-87
2021/12/06 13:45:47;;;;;;;14.93;8.05;;;;;;;2.96;95.32;99613.94;5558089;32;34768;-87
2021/12/06 13:49:27;;;;;;;12.20;7.97;;;;;;;2.74;95.70;99613.75;5554915;32;33962;-87
2021/12/06 13:52:35;;;;;;;11.82;8.15;;;;;;;2.83;95.03;99619.56;5455922;32;33640;-87
2021/12/06 13:55:40;;;;;;;13.88;8.50;;;;;;;2.54;95.86;99615.19;5454079;32;34490;-86
2021/12/06 13:58:43;;;;;;;12.80;8.20;;;;;;;2.54;96.02;99620.44;5456237;32;33800;-86
2021/12/06 14:01:47;;;;;;;10.85;7.75;;;;;;;2.51;95.76;99637.09;5456912;32;33948;-86
2021/12/06 14:04:51;;;;;;;9.30;7.65;;;;;;;2.52;95.64;99637.94;5457321;32;34223;-85
2021/12/06 14:07:54;;;;;;;11.38;7.18;;;;;;;2.48;95.32;99642.41;5458126;32;34205;-85
2021/12/06 14:10:57;;;;;;;11.55;7.12;;;;;;;2.54;94.09;99649.22;5456177;32;33676;-86
2021/12/06 14:14:13;;;;;;;11.40;7.10;;;;;;;2.43;94.61;99644.31;5455579;32;34173;-86
2021/12/06 14:17:19;;;;;;;10.50;7.30;;;;;;;2.38;94.35;99640.94;5457026;32;33991;-86
2021/12/06 14:20:22;;;;;;;9.70;6.75;;;;;;;2.56;93.18;99642.19;5457845;32;33943;-86
2021/12/06 14:23:28;;;;;;;9.45;6.60;;;;;;;2.48;92.79;99652.03;5458423;32;34056;-85
2021/12/06 14:26:33;;;;;;;9.73;6.40;;;;;;;2.61;92.02;99660.41;5509549;32;33989;-86
2021/12/06 14:29:37;;;;;;;10.82;6.60;;;;;;;2.38;93.11;99659.28;5545074;32;33696;-86
2021/12/06 14:32:48;;;;;;;9.00;6.87;;;;;;;2.29;93.42;99663.00;5557815;32;33935;-85
2021/12/06 14:35:51;;;;;;;8.40;6.32;;;;;;;2.34;94.13;99660.25;5557898;32;34047;-90
2021/12/06 14:38:54;;;;;;;9.23;6.62;;;;;;;2.24;93.83;99665.75;5540715;32;34268;-89
2021/12/06 14:42:01;;;;;;;8.45;6.30;;;;;;;2.16;94.56;99667.69;5537861;32;33899;-86
2021/12/06 14:45:06;;;;;;;9.55;6.37;;;;;;;2.35;94.15;99661.97;5538482;32;34255;-86
2021/12/06 14:48:15;;;;;;;9.82;6.35;;;;;;;2.19;94.68;99661.50;5554015;32;33748;-86
2021/12/06 14:51:18;;;;;;;12.37;7.10;;;;;;;2.52;93.56;99664.13;5545563;32;34465;-85
2021/12/06 14:54:26;;;;;;;8.70;6.90;;;;;;;2.11;94.69;99665.19;5541980;32;34295;-86
2021/12/06 14:57:32;;;;;;;11.95;7.43;;;;;;;2.05;94.76;99665.34;5540581;32;33986;-85
2021/12/06 15:01:03;;;;;;;11.10;7.53;;;;;;;1.97;95.54;99667.31;5535806;32;33154;-85
2021/12/06 15:04:18;;;;;;;12.27;7.22;;;;;;;1.93;95.73;99678.75;5535014;32;33978;-84
2021/12/06 15:07:21;;;;;;;12.98;7.60;;;;;;;2.01;95.49;99672.44;5536035;32;34417;-85
2021/12/06 15:10:26;;;;;;;12.02;7.90;;;;;;;1.83;96.28;99668.53;5536484;32;34381;-86
2021/12/06 15:13:30;;;;;;;13.20;8.63;;;;;;;1.77;96.63;99678.28;5536147;32;34392;-85
2021/12/06 15:16:33;;;;;;;12.68;7.85;;;;;;;1.73;96.89;99677.50;5537662;32;34545;-85
2021/12/06 15:19:42;;;;;;;14.60;8.45;;;;;;;1.80;96.49;99681.69;5554565;32;35421;-85
2021/12/06 15:22:45;;;;;;;15.00;8.20;;;;;;;1.76;96.09;99685.25;5550751;32;34360;-86
2021/12/06 15:25:51;;;;;;;15.57;8.93;;;;;;;1.77;96.00;99684.38;5555372;32;35472;-87
2021/12/06 15:28:57;;;;;;;13.82;8.88;;;;;;;1.80;95.28;99686.06;5554087;32;33824;-86
2021/12/06 15:32:05;;;;;;;14.82;9.07;;;;;;;1.87;94.61;99688.47;5548620;32;33758;-86
2021/12/06 15:35:08;;;;;;;18.83;10.10;;;;;;;1.88;94.67;99691.97;5553663;32;33539;-87
2021/12/06 15:38:19;;;;;;;18.12;10.10;;;;;;;1.78;92.94;99688.72;5559381;32;34110;-87
2021/12/06 15:41:30;;;;;;;15.45;9.68;;;;;;;1.74;93.42;99697.53;5558325;32;34308;-86
2021/12/06 15:44:38;;;;;;;21.60;10.65;;;;;;;1.72;92.36;99696.72;5552905;32;34014;-90
2021/12/06 15:47:46;;;;;;;17.40;11.05;;;;;;;1.62;92.95;99699.53;5554399;32;34266;-90
2021/12/06 15:50:50;;;;;;;17.48;10.93;;;;;;;1.61;92.36;99700.44;5557990;32;34128;-84
2021/12/06 15:53:56;;;;;;;18.73;10.52;;;;;;;1.64;91.86;99703.84;5553773;32;34263;-84
2021/12/06 15:57:10;;;;;;;21.08;12.35;;;;;;;1.58;92.28;99703.13;5556907;32;34193;-84
2021/12/06 16:00:24;;;;;;;23.55;13.15;;;;;;;1.60;91.96;99710.91;5555135;32;34361;-84
2021/12/06 16:03:31;;;;;;;22.23;12.13;;;;;;;1.56;91.71;99707.50;5557663;32;33837;-85
2021/12/06 16:06:35;;;;;;;21.42;11.95;;;;;;;1.53;91.60;99710.22;5554937;32;34158;-84
2021/12/06 16:09:38;;;;;;;20.50;12.25;;;;;;;1.46;91.97;99712.09;5552755;32;35293;-84
2021/12/06 16:12:58;;;;;;;22.40;12.32;;;;;;;1.47;91.67;99723.44;5550587;32;34227;-84
2021/12/06 16:16:01;;;;;;;23.70;12.57;;;;;;;1.45;91.40;99725.19;5565477;32;34063;-84
2021/12/06 16:19:03;;;;;;;22.00;12.88;;;;;;;1.50;91.73;99740.78;5579013;32;33849;-84
2021/12/06 16:22:08;;;;;;;20.70;13.00;;;;;;;1.55;91.59;99738.94;5576956;32;34893;-84
2021/12/06 16:25:13;;;;;;;21.77;12.73;;;;;;;1.51;91.21;99747.75;5575950;32;33923;-84
2021/12/06 16:28:19;;;;;;;21.05;12.45;;;;;;;1.42;91.89;99756.66;5575712;32;34615;-84
2021/12/06 16:31:26;;;;;;;25.42;13.88;;;;;;;1.41;92.17;99758.38;5578295;32;33692;-84
2021/12/06 16:34:32;;;;;;;20.77;12.35;;;;;;;1.46;91.61;99763.53;5573899;32;33968;-84
2021/12/06 16:37:35;;;;;;;21.37;13.15;;;;;;;1.39;91.32;99767.16;5573583;32;34222;-84
2021/12/06 16:40:38;;;;;;;23.75;13.25;;;;;;;1.45;91.92;99775.72;5574600;32;34159;-85
2021/12/06 16:43:50;;;;;;;22.73;13.32;;;;;;;1.41;91.68;99787.13;5575861;32;33967;-84
2021/12/06 16:46:59;;;;;;;23.40;13.40;;;;;;;1.44;91.46;99786.22;5575175;32;35320;-85
2021/12/06 16:50:16;;;;;;;26.23;13.98;;;;;;;1.40;91.05;99795.03;5573114;32;34415;-85
